Elmer, Oklahoma
Current Conditions -  °F | °C
As of 10:58 AM on Thursday 30 Oct 2014 (Local Time) from KLTS Reporting Station
Clear Clear  
Wind Chill: 65°   Ceiling: Unl
Heat Index: 65°   Visibility: 10mi
Dew Point: 47°   Wind: 3mph
Humidity: 53%   Direction: 220°SW
Pressure: 30.16"   Gusts: NA
Location:  34.48°N, 99.35°W
Report Text: KLTS 301558Z AUTO 22003KT 10SM CLR 18/09 A3016 RMK AO2 SLP209 T01810085 $
Loading
Personal Weather Stations






























Interactive Weather Map
Tropical Storm Tracking
New forecast layout! Learn more

10-Day Weather Forecast

Advertisements
Track Severe Weather on mobile